sensor_id;sensor_type;location;lat;lon;timestamp;pressure;altitude;pressure_sealevel;temperature;humidity
13604;BME280;24578;48.264;11.436;2022-09-27T00:00:27;94639.47;;;10.65;97.45
13604;BME280;24578;48.264;11.436;2022-09-27T00:03:27;94633.25;;;10.58;97.93
13604;BME280;24578;48.264;11.436;2022-09-27T00:06:28;94627.59;;;10.55;98.62
13604;BME280;24578;48.264;11.436;2022-09-27T00:09:29;94610.72;;;10.50;99.38
13604;BME280;24578;48.264;11.436;2022-09-27T00:12:29;94606.97;;;10.45;100.00
13604;BME280;24578;48.264;11.436;2022-09-27T00:15:30;94610.53;;;10.44;100.00
13604;BME280;24578;48.264;11.436;2022-09-27T00:18:30;94611.78;;;10.40;100.00
13604;BME280;24578;48.264;11.436;2022-09-27T00:21:30;94610.72;;;10.32;100.00
13604;BME280;24578;48.264;11.436;2022-09-27T00:24:31;94601.63;;;10.28;100.00
13604;BME280;24578;48.264;11.436;2022-09-27T00:27:31;94600.97;;;10.26;100.00
13604;BME280;24578;48.264;11.436;2022-09-27T00:30:31;94601.94;;;10.25;100.00
13604;BME280;24578;48.264;11.436;2022-09-27T00:33:31;94590.13;;;10.23;100.00
13604;BME280;24578;48.264;11.436;2022-09-27T00:36:32;94590.56;;;10.18;100.00
13604;BME280;24578;48.264;11.436;2022-09-27T00:39:32;94592.78;;;10.13;100.00
13604;BME280;24578;48.264;11.436;2022-09-27T00:42:33;94588.72;;;10.10;100.00
13604;BME280;24578;48.264;11.436;2022-09-27T00:45:33;94583.69;;;10.09;100.00
13604;BME280;24578;48.264;11.436;2022-09-27T00:48:33;94587.59;;;10.13;100.00
13604;BME280;24578;48.264;11.436;2022-09-27T00:51:35;94589.53;;;10.11;100.00
13604;BME280;24578;48.264;11.436;2022-09-27T00:54:37;94580.53;;;10.15;100.00
13604;BME280;24578;48.264;11.436;2022-09-27T00:57:40;94583.03;;;10.06;100.00
13604;BME280;24578;48.264;11.436;2022-09-27T01:00:43;94571.22;;;10.04;100.00
13604;BME280;24578;48.264;11.436;2022-09-27T01:06:47;94566.72;;;10.06;100.00
13604;BME280;24578;48.264;11.436;2022-09-27T01:09:47;94567.22;;;10.10;100.00
13604;BME280;24578;48.264;11.436;2022-09-27T01:12:57;94567.50;;;10.06;100.00
13604;BME280;24578;48.264;11.436;2022-09-27T01:31:56;94539.25;;;9.87;100.00
13604;BME280;24578;48.264;11.436;2022-09-27T01:35:03;94543.47;;;9.88;100.00
13604;BME280;24578;48.264;11.436;2022-09-27T01:38:16;94538.13;;;9.89;100.00
13604;BME280;24578;48.264;11.436;2022-09-27T01:50:39;94543.97;;;9.92;100.00
13604;BME280;24578;48.264;11.436;2022-09-27T01:53:44;94545.22;;;9.87;100.00
13604;BME280;24578;48.264;11.436;2022-09-27T01:56:50;94541.00;;;9.86;100.00
13604;BME280;24578;48.264;11.436;2022-09-27T01:59:55;94541.50;;;9.90;100.00
13604;BME280;24578;48.264;11.436;2022-09-27T02:03:00;94541.50;;;9.90;100.00
13604;BME280;24578;48.264;11.436;2022-09-27T02:06:10;94534.72;;;9.89;100.00
13604;BME280;24578;48.264;11.436;2022-09-27T02:09:13;94541.50;;;9.90;100.00
13604;BME280;24578;48.264;11.436;2022-09-27T02:12:18;94540.22;;;9.86;100.00
13604;BME280;24578;48.264;11.436;2022-09-27T02:15:19;94539.44;;;9.75;100.00
13604;BME280;24578;48.264;11.436;2022-09-27T02:18:22;94537.03;;;9.74;100.00
13604;BME280;24578;48.264;11.436;2022-09-27T02:21:37;94534.94;;;9.59;100.00
13604;BME280;24578;48.264;11.436;2022-09-27T02:24:44;94529.28;;;9.56;100.00
13604;BME280;24578;48.264;11.436;2022-09-27T02:27:49;94516.50;;;9.54;100.00
13604;BME280;24578;48.264;11.436;2022-09-27T02:30:51;94525.56;;;9.40;100.00
13604;BME280;24578;48.264;11.436;2022-09-27T02:33:53;94510.94;;;9.31;100.00
13604;BME280;24578;48.264;11.436;2022-09-27T02:36:55;94493.47;;;9.25;100.00
13604;BME280;24578;48.264;11.436;2022-09-27T02:39:56;94495.94;;;9.17;100.00
13604;BME280;24578;48.264;11.436;2022-09-27T02:42:56;94490.94;;;9.15;100.00
13604;BME280;24578;48.264;11.436;2022-09-27T02:46:12;94491.88;;;9.14;100.00
13604;BME280;24578;48.264;11.436;2022-09-27T02:50:15;94491.66;;;9.07;100.00
13604;BME280;24578;48.264;11.436;2022-09-27T02:58:57;94483.13;;;8.97;100.00
13604;BME280;24578;48.264;11.436;2022-09-27T03:02:18;94479.91;;;8.95;100.00
13604;BME280;24578;48.264;11.436;2022-09-27T03:05:26;94475.97;;;8.91;100.00
13604;BME280;24578;48.264;11.436;2022-09-27T03:08:27;94478.56;;;8.91;100.00
13604;BME280;24578;48.264;11.436;2022-09-27T03:11:28;94475.47;;;8.87;100.00
13604;BME280;24578;48.264;11.436;2022-09-27T03:14:28;94478.84;;;8.88;100.00
13604;BME280;24578;48.264;11.436;2022-09-27T03:17:28;94472.88;;;8.87;100.00
13604;BME280;24578;48.264;11.436;2022-09-27T03:20:28;94470.81;;;8.91;100.00
13604;BME280;24578;48.264;11.436;2022-09-27T03:23:29;94464.09;;;8.98;100.00
13604;BME280;24578;48.264;11.436;2022-09-27T03:26:29;94463.59;;;8.94;100.00
13604;BME280;24578;48.264;11.436;2022-09-27T03:29:29;94465.94;;;8.88;100.00
13604;BME280;24578;48.264;11.436;2022-09-27T03:32:29;94466.91;;;8.87;100.00
13604;BME280;24578;48.264;11.436;2022-09-27T03:35:30;94462.25;;;8.90;100.00
13604;BME280;24578;48.264;11.436;2022-09-27T03:38:30;94465.78;;;8.89;100.00
13604;BME280;24578;48.264;11.436;2022-09-27T03:41:30;94459.81;;;8.89;100.00
13604;BME280;24578;48.264;11.436;2022-09-27T03:44:31;94451.94;;;8.90;100.00
13604;BME280;24578;48.264;11.436;2022-09-27T03:47:31;94447.31;;;8.94;100.00
13604;BME280;24578;48.264;11.436;2022-09-27T03:50:32;94440.88;;;8.98;100.00
13604;BME280;24578;48.264;11.436;2022-09-27T03:53:32;94446.19;;;8.96;100.00
13604;BME280;24578;48.264;11.436;2022-09-27T03:56:32;94432.19;;;8.99;100.00
13604;BME280;24578;48.264;11.436;2022-09-27T03:59:32;94439.81;;;9.01;100.00
13604;BME280;24578;48.264;11.436;2022-09-27T04:02:32;94436.91;;;9.04;100.00
13604;BME280;24578;48.264;11.436;2022-09-27T04:05:33;94436.06;;;9.13;100.00
13604;BME280;24578;48.264;11.436;2022-09-27T04:08:33;94429.78;;;9.16;100.00
13604;BME280;24578;48.264;11.436;2022-09-27T04:11:33;94434.50;;;9.20;100.00
13604;BME280;24578;48.264;11.436;2022-09-27T04:14:33;94433.03;;;9.18;100.00
13604;BME280;24578;48.264;11.436;2022-09-27T04:17:34;94436.84;;;9.13;100.00
13604;BME280;24578;48.264;11.436;2022-09-27T04:20:34;94434.94;;;9.16;100.00
13604;BME280;24578;48.264;11.436;2022-09-27T04:23:35;94443.84;;;9.21;100.00
13604;BME280;24578;48.264;11.436;2022-09-27T04:26:35;94437.75;;;9.22;100.00
13604;BME280;24578;48.264;11.436;2022-09-27T04:29:36;94437.63;;;9.24;100.00
13604;BME280;24578;48.264;11.436;2022-09-27T04:32:40;94449.56;;;9.25;100.00
13604;BME280;24578;48.264;11.436;2022-09-27T04:35:41;94441.16;;;9.23;100.00
13604;BME280;24578;48.264;11.436;2022-09-27T04:39:01;94434.13;;;9.15;100.00
13604;BME280;24578;48.264;11.436;2022-09-27T04:42:01;94440.09;;;9.16;100.00
13604;BME280;24578;48.264;11.436;2022-09-27T04:45:02;94441.44;;;9.20;100.00
13604;BME280;24578;48.264;11.436;2022-09-27T04:48:03;94440.94;;;9.16;100.00
13604;BME280;24578;48.264;11.436;2022-09-27T04:51:03;94437.81;;;9.12;100.00
13604;BME280;24578;48.264;11.436;2022-09-27T04:54:03;94456.53;;;9.14;100.00
13604;BME280;24578;48.264;11.436;2022-09-27T04:57:04;94447.19;;;9.13;100.00
13604;BME280;24578;48.264;11.436;2022-09-27T05:00:06;94450.06;;;9.10;100.00
13604;BME280;24578;48.264;11.436;2022-09-27T05:03:06;94453.22;;;9.04;100.00
13604;BME280;24578;48.264;11.436;2022-09-27T05:06:07;94458.94;;;8.98;100.00
13604;BME280;24578;48.264;11.436;2022-09-27T05:09:07;94458.66;;;9.01;100.00
13604;BME280;24578;48.264;11.436;2022-09-27T05:12:07;94467.66;;;8.97;100.00
13604;BME280;24578;48.264;11.436;2022-09-27T05:15:08;94475.38;;;8.97;100.00
13604;BME280;24578;48.264;11.436;2022-09-27T05:18:08;94474.03;;;9.03;100.00
13604;BME280;24578;48.264;11.436;2022-09-27T05:21:10;94470.63;;;9.02;100.00
13604;BME280;24578;48.264;11.436;2022-09-27T05:24:11;94471.00;;;9.07;100.00
13604;BME280;24578;48.264;11.436;2022-09-27T05:27:12;94465.00;;;9.07;100.00
13604;BME280;24578;48.264;11.436;2022-09-27T05:30:15;94472.91;;;9.05;100.00
13604;BME280;24578;48.264;11.436;2022-09-27T05:33:15;94486.78;;;9.04;100.00
13604;BME280;24578;48.264;11.436;2022-09-27T05:36:15;94486.28;;;9.19;100.00
13604;BME280;24578;48.264;11.436;2022-09-27T05:39:16;94491.88;;;9.14;100.00
13604;BME280;24578;48.264;11.436;2022-09-27T05:42:16;94480.38;;;9.08;100.00
13604;BME280;24578;48.264;11.436;2022-09-27T05:45:18;94486.63;;;9.06;100.00
13604;BME280;24578;48.264;11.436;2022-09-27T05:48:19;94494.31;;;9.16;100.00
13604;BME280;24578;48.264;11.436;2022-09-27T05:51:21;94490.66;;;9.18;100.00
13604;BME280;24578;48.264;11.436;2022-09-27T05:54:21;94495.59;;;10.02;100.00
13604;BME280;24578;48.264;11.436;2022-09-27T05:57:21;94509.84;;;10.06;100.00
13604;BME280;24578;48.264;11.436;2022-09-27T06:00:21;94513.22;;;10.51;100.00
13604;BME280;24578;48.264;11.436;2022-09-27T06:03:21;94507.19;;;11.63;100.00
13604;BME280;24578;48.264;11.436;2022-09-27T06:06:22;94511.66;;;13.24;92.84
13604;BME280;24578;48.264;11.436;2022-09-27T06:09:22;94521.56;;;12.81;95.12
13604;BME280;24578;48.264;11.436;2022-09-27T06:12:23;94529.09;;;11.93;99.04
13604;BME280;24578;48.264;11.436;2022-09-27T06:15:23;94526.31;;;11.70;100.00
13604;BME280;24578;48.264;11.436;2022-09-27T06:18:23;94527.50;;;13.06;94.71
13604;BME280;24578;48.264;11.436;2022-09-27T06:21:23;94516.72;;;13.89;87.47
13604;BME280;24578;48.264;11.436;2022-09-27T06:24:24;94532.13;;;14.14;85.92
13604;BME280;24578;48.264;11.436;2022-09-27T06:27:24;94538.84;;;14.70;84.02
13604;BME280;24578;48.264;11.436;2022-09-27T06:30:25;94537.66;;;15.84;77.04
13604;BME280;24578;48.264;11.436;2022-09-27T06:33:26;94541.72;;;17.15;70.93
13604;BME280;24578;48.264;11.436;2022-09-27T06:36:29;94543.13;;;18.49;63.30
13604;BME280;24578;48.264;11.436;2022-09-27T06:39:29;94550.16;;;18.89;61.32
13604;BME280;24578;48.264;11.436;2022-09-27T06:42:32;94546.22;;;17.84;64.18
13604;BME280;24578;48.264;11.436;2022-09-27T06:45:32;94569.03;;;16.12;70.24
13604;BME280;24578;48.264;11.436;2022-09-27T06:48:33;94573.97;;;15.19;74.53
13604;BME280;24578;48.264;11.436;2022-09-27T06:51:35;94565.59;;;15.53;74.19
13604;BME280;24578;48.264;11.436;2022-09-27T06:54:35;94573.91;;;17.16;68.18
13604;BME280;24578;48.264;11.436;2022-09-27T06:57:35;94581.31;;;16.12;69.37
13604;BME280;24578;48.264;11.436;2022-09-27T07:00:54;94571.19;;;16.96;69.70
13604;BME280;24578;48.264;11.436;2022-09-27T07:03:54;94569.22;;;19.43;59.76
13604;BME280;24578;48.264;11.436;2022-09-27T07:06:55;94558.41;;;20.10;55.86
13604;BME280;24578;48.264;11.436;2022-09-27T07:09:55;94565.19;;;20.31;51.42
13604;BME280;24578;48.264;11.436;2022-09-27T07:12:55;94560.56;;;21.03;48.18
13604;BME280;24578;48.264;11.436;2022-09-27T07:15:57;94570.22;;;20.58;47.91
13604;BME280;24578;48.264;11.436;2022-09-27T07:18:57;94578.84;;;17.94;54.44
13604;BME280;24578;48.264;11.436;2022-09-27T07:21:57;94580.31;;;16.35;59.94
13604;BME280;24578;48.264;11.436;2022-09-27T07:24:58;94581.25;;;16.05;63.11
13604;BME280;24578;48.264;11.436;2022-09-27T07:28:05;94588.78;;;15.63;63.88
13604;BME280;24578;48.264;11.436;2022-09-27T07:31:05;94591.69;;;14.55;68.98
13604;BME280;24578;48.264;11.436;2022-09-27T07:34:05;94592.25;;;13.96;72.89
13604;BME280;24578;48.264;11.436;2022-09-27T07:37:05;94598.66;;;13.53;76.76
13604;BME280;24578;48.264;11.436;2022-09-27T07:40:06;94587.88;;;13.08;81.05
13604;BME280;24578;48.264;11.436;2022-09-27T07:43:08;94612.63;;;12.71;83.92
13604;BME280;24578;48.264;11.436;2022-09-27T07:46:08;94612.31;;;12.33;90.54
13604;BME280;24578;48.264;11.436;2022-09-27T07:49:10;94620.94;;;11.82;96.65
13604;BME280;24578;48.264;11.436;2022-09-27T07:52:10;94632.28;;;11.38;100.00
13604;BME280;24578;48.264;11.436;2022-09-27T07:55:10;94657.38;;;11.03;100.00
13604;BME280;24578;48.264;11.436;2022-09-27T07:58:12;94654.69;;;10.69;100.00
13604;BME280;24578;48.264;11.436;2022-09-27T08:01:12;94648.69;;;10.32;100.00
13604;BME280;24578;48.264;11.436;2022-09-27T08:04:13;94664.34;;;9.94;100.00
13604;BME280;24578;48.264;11.436;2022-09-27T08:07:13;94662.41;;;9.78;100.00
13604;BME280;24578;48.264;11.436;2022-09-27T08:10:13;94666.09;;;9.66;100.00
13604;BME280;24578;48.264;11.436;2022-09-27T08:13:14;94672.09;;;9.66;100.00
13604;BME280;24578;48.264;11.436;2022-09-27T08:16:18;94664.34;;;10.12;100.00
13604;BME280;24578;48.264;11.436;2022-09-27T08:19:19;94651.81;;;14.37;91.96
13604;BME280;24578;48.264;11.436;2022-09-27T08:22:19;94661.06;;;15.10;83.04
13604;BME280;24578;48.264;11.436;2022-09-27T08:25:20;94665.16;;;13.79;87.87
13604;BME280;24578;48.264;11.436;2022-09-27T08:28:23;94664.50;;;13.13;89.54
13604;BME280;24578;48.264;11.436;2022-09-27T08:31:23;94679.69;;;12.00;90.84
13604;BME280;24578;48.264;11.436;2022-09-27T08:34:25;94677.03;;;11.92;94.59
13604;BME280;24578;48.264;11.436;2022-09-27T08:37:25;94685.97;;;11.97;92.33
13604;BME280;24578;48.264;11.436;2022-09-27T08:44:02;94692.94;;;11.97;96.31
13604;BME280;24578;48.264;11.436;2022-09-27T08:53:21;94701.91;;;11.68;97.23
13604;BME280;24578;48.264;11.436;2022-09-27T08:56:22;94699.97;;;11.70;96.41
13604;BME280;24578;48.264;11.436;2022-09-27T08:59:24;94708.44;;;11.80;95.35
13604;BME280;24578;48.264;11.436;2022-09-27T09:02:27;94708.94;;;12.27;93.92
13604;BME280;24578;48.264;11.436;2022-09-27T09:05:28;94692.97;;;16.17;75.17
13604;BME280;24578;48.264;11.436;2022-09-27T09:18:33;94685.75;;;16.99;63.92
13604;BME280;24578;48.264;11.436;2022-09-27T09:21:45;94701.38;;;15.97;66.75
13604;BME280;24578;48.264;11.436;2022-09-27T09:24:56;94699.66;;;15.44;70.45
13604;BME280;24578;48.264;11.436;2022-09-27T09:34:11;94700.06;;;14.25;77.43
13604;BME280;24578;48.264;11.436;2022-09-27T09:37:18;94703.13;;;13.40;79.06
13604;BME280;24578;48.264;11.436;2022-09-27T09:40:22;94711.28;;;12.63;82.87
13604;BME280;24578;48.264;11.436;2022-09-27T09:43:57;94707.53;;;13.15;80.55
13604;BME280;24578;48.264;11.436;2022-09-27T09:46:52;94710.63;;;13.02;79.42
13604;BME280;24578;48.264;11.436;2022-09-27T09:49:56;94717.91;;;13.32;79.83
13604;BME280;24578;48.264;11.436;2022-09-27T09:56:30;94711.09;;;12.98;80.73
13604;BME280;24578;48.264;11.436;2022-09-27T09:59:42;94722.09;;;12.50;81.42
13604;BME280;24578;48.264;11.436;2022-09-27T10:02:45;94718.81;;;12.31;82.65
13604;BME280;24578;48.264;11.436;2022-09-27T10:05:45;94731.91;;;12.13;84.86
13604;BME280;24578;48.264;11.436;2022-09-27T10:08:46;94723.78;;;13.01;80.27
13604;BME280;24578;48.264;11.436;2022-09-27T10:11:46;94714.16;;;13.51;76.75
13604;BME280;24578;48.264;11.436;2022-09-27T10:14:47;94721.91;;;13.67;76.98
13604;BME280;24578;48.264;11.436;2022-09-27T10:17:49;94722.28;;;13.56;74.76
13604;BME280;24578;48.264;11.436;2022-09-27T10:20:51;94721.44;;;13.55;77.05
13604;BME280;24578;48.264;11.436;2022-09-27T10:24:12;94722.88;;;13.75;75.46
13604;BME280;24578;48.264;11.436;2022-09-27T10:27:12;94730.22;;;13.63;76.22
13604;BME280;24578;48.264;11.436;2022-09-27T10:30:23;94729.88;;;13.58;77.65
13604;BME280;24578;48.264;11.436;2022-09-27T10:33:24;94737.69;;;13.58;75.79
13604;BME280;24578;48.264;11.436;2022-09-27T10:36:25;94739.13;;;13.77;75.91
13604;BME280;24578;48.264;11.436;2022-09-27T10:39:26;94740.94;;;13.68;74.30
13604;BME280;24578;48.264;11.436;2022-09-27T10:42:31;94733.50;;;13.96;74.82
13604;BME280;24578;48.264;11.436;2022-09-27T10:45:32;94735.56;;;13.69;74.02
13604;BME280;24578;48.264;11.436;2022-09-27T10:48:33;94729.94;;;13.97;74.96
13604;BME280;24578;48.264;11.436;2022-09-27T10:51:33;94726.50;;;14.68;75.19
13604;BME280;24578;48.264;11.436;2022-09-27T10:54:34;94725.53;;;15.46;72.20
13604;BME280;24578;48.264;11.436;2022-09-27T10:57:36;94734.47;;;15.66;73.17
13604;BME280;24578;48.264;11.436;2022-09-27T11:00:36;94742.63;;;15.48;74.10
13604;BME280;24578;48.264;11.436;2022-09-27T11:03:48;94747.91;;;15.25;74.80
13604;BME280;24578;48.264;11.436;2022-09-27T11:06:49;94731.38;;;15.33;76.10
13604;BME280;24578;48.264;11.436;2022-09-27T11:09:54;94734.28;;;15.83;74.12
13604;BME280;24578;48.264;11.436;2022-09-27T11:19:42;94716.81;;;17.37;65.14
13604;BME280;24578;48.264;11.436;2022-09-27T11:32:06;94708.69;;;17.25;58.64
13604;BME280;24578;48.264;11.436;2022-09-27T11:35:24;94714.91;;;17.53;56.54
13604;BME280;24578;48.264;11.436;2022-09-27T11:51:07;94750.38;;;13.11;82.65
13604;BME280;24578;48.264;11.436;2022-09-27T11:54:14;94748.19;;;12.40;86.47
13604;BME280;24578;48.264;11.436;2022-09-27T12:00:37;94760.91;;;11.21;93.48
13604;BME280;24578;48.264;11.436;2022-09-27T12:07:27;94760.78;;;10.69;100.00
13604;BME280;24578;48.264;11.436;2022-09-27T12:10:30;94753.59;;;10.44;100.00
13604;BME280;24578;48.264;11.436;2022-09-27T12:13:33;94758.03;;;10.52;100.00
13604;BME280;24578;48.264;11.436;2022-09-27T12:16:36;94750.25;;;11.06;100.00
13604;BME280;24578;48.264;11.436;2022-09-27T12:19:39;94748.91;;;12.08;100.00
13604;BME280;24578;48.264;11.436;2022-09-27T12:22:46;94741.44;;;12.64;100.00
13604;BME280;24578;48.264;11.436;2022-09-27T12:25:49;94733.38;;;12.84;94.51
13604;BME280;24578;48.264;11.436;2022-09-27T12:28:57;94735.31;;;12.98;94.34
13604;BME280;24578;48.264;11.436;2022-09-27T12:35:09;94725.53;;;13.25;92.69
13604;BME280;24578;48.264;11.436;2022-09-27T12:41:28;94708.31;;;14.60;84.07
13604;BME280;24578;48.264;11.436;2022-09-27T12:44:37;94711.28;;;14.80;81.80
13604;BME280;24578;48.264;11.436;2022-09-27T12:51:01;94701.28;;;14.37;79.93
13604;BME280;24578;48.264;11.436;2022-09-27T13:00:51;94700.91;;;13.77;81.95
13604;BME280;24578;48.264;11.436;2022-09-27T13:07:12;94709.94;;;13.50;83.85
13604;BME280;24578;48.264;11.436;2022-09-27T13:10:32;94705.28;;;13.85;84.44
13604;BME280;24578;48.264;11.436;2022-09-27T13:13:34;94695.50;;;14.27;82.24
13604;BME280;24578;48.264;11.436;2022-09-27T13:16:42;94688.16;;;14.54;81.74
13604;BME280;24578;48.264;11.436;2022-09-27T13:19:43;94694.06;;;14.48;79.91
13604;BME280;24578;48.264;11.436;2022-09-27T13:22:44;94683.38;;;14.11;78.80
13604;BME280;24578;48.264;11.436;2022-09-27T13:35:08;94668.19;;;14.77;80.41
13604;BME280;24578;48.264;11.436;2022-09-27T13:38:21;94671.97;;;14.67;67.80
13604;BME280;24578;48.264;11.436;2022-09-27T13:41:22;94668.69;;;15.11;67.25
13604;BME280;24578;48.264;11.436;2022-09-27T13:47:30;94674.47;;;14.37;62.36
13604;BME280;24578;48.264;11.436;2022-09-27T13:50:38;94676.41;;;14.03;67.09
13604;BME280;24578;48.264;11.436;2022-09-27T13:53:54;94681.94;;;14.08;68.55
13604;BME280;24578;48.264;11.436;2022-09-27T13:56:55;94681.94;;;13.68;67.44
13604;BME280;24578;48.264;11.436;2022-09-27T13:59:56;94688.09;;;13.67;68.35
13604;BME280;24578;48.264;11.436;2022-09-27T14:03:00;94698.44;;;13.84;67.14
13604;BME280;24578;48.264;11.436;2022-09-27T14:06:05;94697.84;;;13.74;67.02
13604;BME280;24578;48.264;11.436;2022-09-27T14:09:06;94688.44;;;13.64;66.18
13604;BME280;24578;48.264;11.436;2022-09-27T14:12:30;94699.72;;;13.40;67.92
13604;BME280;24578;48.264;11.436;2022-09-27T14:15:32;94697.94;;;13.24;69.10
13604;BME280;24578;48.264;11.436;2022-09-27T14:18:34;94700.88;;;13.46;69.04
13604;BME280;24578;48.264;11.436;2022-09-27T14:21:39;94718.00;;;13.63;65.80
13604;BME280;24578;48.264;11.436;2022-09-27T14:27:39;94706.09;;;12.79;70.50
13604;BME280;24578;48.264;11.436;2022-09-27T14:30:39;94712.91;;;12.64;70.57
13604;BME280;24578;48.264;11.436;2022-09-27T14:33:39;94714.97;;;12.44;72.21
13604;BME280;24578;48.264;11.436;2022-09-27T14:36:40;94724.13;;;12.13;72.76
13604;BME280;24578;48.264;11.436;2022-09-27T14:40:04;94714.94;;;11.93;74.95
13604;BME280;24578;48.264;11.436;2022-09-27T14:43:09;94729.13;;;11.72;76.26
13604;BME280;24578;48.264;11.436;2022-09-27T14:46:23;94726.06;;;11.42;79.10
13604;BME280;24578;48.264;11.436;2022-09-27T14:49:24;94728.69;;;11.24;80.69
13604;BME280;24578;48.264;11.436;2022-09-27T14:52:28;94720.53;;;11.37;80.85
13604;BME280;24578;48.264;11.436;2022-09-27T14:55:31;94723.69;;;11.49;80.33
13604;BME280;24578;48.264;11.436;2022-09-27T14:58:33;94722.38;;;11.53;79.79
13604;BME280;24578;48.264;11.436;2022-09-27T15:01:35;94717.63;;;11.40;79.51
13604;BME280;24578;48.264;11.436;2022-09-27T15:04:39;94730.19;;;11.26;80.72
13604;BME280;24578;48.264;11.436;2022-09-27T15:07:43;94718.19;;;11.25;81.48
13604;BME280;24578;48.264;11.436;2022-09-27T15:10:44;94713.81;;;11.52;81.60
13604;BME280;24578;48.264;11.436;2022-09-27T15:13:45;94709.47;;;11.61;82.20
13604;BME280;24578;48.264;11.436;2022-09-27T15:16:50;94712.84;;;11.53;83.78
13604;BME280;24578;48.264;11.436;2022-09-27T15:19:58;94719.06;;;11.34;86.09
13604;BME280;24578;48.264;11.436;2022-09-27T15:23:00;94726.06;;;11.16;85.44
13604;BME280;24578;48.264;11.436;2022-09-27T15:26:06;94730.91;;;10.92;85.18
13604;BME280;24578;48.264;11.436;2022-09-27T15:29:23;94726.25;;;10.78;87.78
13604;BME280;24578;48.264;11.436;2022-09-27T15:32:25;94727.69;;;10.72;91.50
13604;BME280;24578;48.264;11.436;2022-09-27T15:35:30;94734.16;;;10.58;95.99
13604;BME280;24578;48.264;11.436;2022-09-27T15:41:35;94760.28;;;10.19;100.00
13604;BME280;24578;48.264;11.436;2022-09-27T15:44:53;94761.72;;;10.03;100.00
13604;BME280;24578;48.264;11.436;2022-09-27T15:47:54;94766.28;;;9.82;100.00
13604;BME280;24578;48.264;11.436;2022-09-27T15:50:55;94760.81;;;9.57;100.00
13604;BME280;24578;48.264;11.436;2022-09-27T15:53:55;94742.66;;;9.67;100.00
13604;BME280;24578;48.264;11.436;2022-09-27T15:56:56;94740.53;;;9.52;100.00
13604;BME280;24578;48.264;11.436;2022-09-27T16:00:01;94743.03;;;9.34;100.00
13604;BME280;24578;48.264;11.436;2022-09-27T16:03:01;94729.38;;;9.14;100.00
13604;BME280;24578;48.264;11.436;2022-09-27T16:06:02;94751.66;;;9.05;100.00
13604;BME280;24578;48.264;11.436;2022-09-27T16:09:02;94749.06;;;9.05;100.00
13604;BME280;24578;48.264;11.436;2022-09-27T16:12:03;94751.78;;;9.13;100.00
13604;BME280;24578;48.264;11.436;2022-09-27T16:15:03;94754.50;;;9.12;100.00
13604;BME280;24578;48.264;11.436;2022-09-27T16:18:04;94763.72;;;9.14;100.00
13604;BME280;24578;48.264;11.436;2022-09-27T16:21:04;94761.03;;;9.06;100.00
13604;BME280;24578;48.264;11.436;2022-09-27T16:24:04;94764.03;;;9.02;100.00
13604;BME280;24578;48.264;11.436;2022-09-27T16:27:04;94767.31;;;8.94;100.00
13604;BME280;24578;48.264;11.436;2022-09-27T16:30:05;94770.94;;;8.91;100.00
13604;BME280;24578;48.264;11.436;2022-09-27T16:33:05;94772.47;;;8.94;100.00
13604;BME280;24578;48.264;11.436;2022-09-27T16:36:06;94770.25;;;8.89;100.00
13604;BME280;24578;48.264;11.436;2022-09-27T16:39:13;94759.69;;;8.82;100.00
13604;BME280;24578;48.264;11.436;2022-09-27T16:42:13;94750.19;;;8.83;100.00
13604;BME280;24578;48.264;11.436;2022-09-27T16:45:14;94753.19;;;8.78;100.00
13604;BME280;24578;48.264;11.436;2022-09-27T16:48:17;94762.41;;;8.71;100.00
13604;BME280;24578;48.264;11.436;2022-09-27T16:51:19;94762.81;;;8.66;100.00
13604;BME280;24578;48.264;11.436;2022-09-27T16:54:38;94784.13;;;8.59;100.00
13604;BME280;24578;48.264;11.436;2022-09-27T16:57:39;94781.53;;;8.59;100.00
13604;BME280;24578;48.264;11.436;2022-09-27T17:00:39;94776.50;;;8.57;100.00
13604;BME280;24578;48.264;11.436;2022-09-27T17:03:41;94781.00;;;8.55;100.00
13604;BME280;24578;48.264;11.436;2022-09-27T17:06:41;94769.75;;;8.56;100.00
13604;BME280;24578;48.264;11.436;2022-09-27T17:09:41;94789.53;;;8.56;100.00
13604;BME280;24578;48.264;11.436;2022-09-27T17:12:42;94789.13;;;8.50;100.00
13604;BME280;24578;48.264;11.436;2022-09-27T17:15:42;94790.38;;;8.56;100.00
13604;BME280;24578;48.264;11.436;2022-09-27T17:18:42;94786.16;;;8.55;100.00
13604;BME280;24578;48.264;11.436;2022-09-27T17:21:43;94782.47;;;8.48;100.00
13604;BME280;24578;48.264;11.436;2022-09-27T17:24:43;94786.88;;;8.36;100.00
13604;BME280;24578;48.264;11.436;2022-09-27T17:27:43;94789.75;;;8.33;100.00
13604;BME280;24578;48.264;11.436;2022-09-27T17:30:44;94789.19;;;8.29;100.00
13604;BME280;24578;48.264;11.436;2022-09-27T17:33:45;94784.44;;;8.25;100.00
13604;BME280;24578;48.264;11.436;2022-09-27T17:36:45;94786.31;;;8.22;100.00
13604;BME280;24578;48.264;11.436;2022-09-27T17:39:51;94791.72;;;8.19;100.00
13604;BME280;24578;48.264;11.436;2022-09-27T17:42:51;94789.81;;;8.12;100.00
13604;BME280;24578;48.264;11.436;2022-09-27T17:45:51;94788.31;;;8.09;100.00
13604;BME280;24578;48.264;11.436;2022-09-27T17:48:53;94784.53;;;8.13;100.00
13604;BME280;24578;48.264;11.436;2022-09-27T17:52:14;94787.81;;;8.15;100.00
13604;BME280;24578;48.264;11.436;2022-09-27T17:55:15;94797.69;;;8.10;100.00
13604;BME280;24578;48.264;11.436;2022-09-27T17:58:17;94794.31;;;8.10;100.00
13604;BME280;24578;48.264;11.436;2022-09-27T18:01:21;94807.31;;;8.08;100.00
13604;BME280;24578;48.264;11.436;2022-09-27T18:04:23;94802.94;;;7.99;100.00
13604;BME280;24578;48.264;11.436;2022-09-27T18:07:25;94809.09;;;7.86;100.00
13604;BME280;24578;48.264;11.436;2022-09-27T18:10:26;94795.69;;;7.83;100.00